Crete, Indiana
Current Conditions -  °F | °C
As of 2:15 PM on Thursday 30 Oct 2014 (Local Time) from KVES Reporting Station
Overcast Overcast  
Wind Chill: 46°   Ceiling: 3900
Heat Index: 46°   Visibility: 10mi
Dew Point: 32°   Wind: 3mph
Humidity: 57%   Direction: 60°ENE
Pressure: 30.11"   Gusts: NA
Location:  40.0606°N, 84.9258°W
Report Text: KVES 301815Z AUTO 06003KT 10SM OVC039 08/00 A3011 RMK AO2
Loading
Personal Weather Stations






























Interactive Weather Map
Tropical Storm Tracking
New forecast layout! Learn more

10-Day Weather Forecast

Advertisements
Track Severe Weather on mobile